Time;durP1;ratioP1;P1;durP2;ratioP2;P2;SDS_P1;SDS_P2;PMS_P1;PMS_P2;Temp;Humidity;BMP_temperature;BMP_pressure;BME280_temperature;BME280_humidity;BME280_pressure;Samples;Min_cycle;Max_cycle;Signal;HPM_P1;HPM_P2
2024/02/24 00:01:17;;;;;;;0.93;0.30;;;5.50;99.90;;;;;;4950182;29;20477;-67
2024/02/24 00:03:43;;;;;;;2.83;0.50;;;5.50;99.90;;;;;;4931053;29;20042;-67
2024/02/24 00:06:09;;;;;;;0.55;0.55;;;5.40;99.90;;;;;;4950535;29;20098;-67
2024/02/24 00:08:34;;;;;;;0.73;0.50;;;5.40;99.90;;;;;;4933441;29;20032;-67
2024/02/24 00:11:00;;;;;;;1.13;0.60;;;5.30;99.90;;;;;;4935400;29;20051;-67
2024/02/24 00:13:26;;;;;;;1.35;0.68;;;5.20;99.90;;;;;;4933380;29;20058;-67
2024/02/24 00:15:51;;;;;;;1.05;0.57;;;5.20;99.90;;;;;;4950131;28;20040;-67
2024/02/24 00:18:21;;;;;;;1.08;0.70;;;5.10;99.90;;;;;;4946182;28;20040;-67
2024/02/24 00:20:47;;;;;;;2.10;1.02;;;5.10;99.90;;;;;;4942277;28;20043;-66
2024/02/24 00:23:12;;;;;;;2.97;0.68;;;5.00;99.90;;;;;;4931897;28;20048;-67
2024/02/24 00:25:38;;;;;;;3.08;0.65;;;5.00;99.90;;;;;;4942427;28;20035;-67
2024/02/24 00:28:04;;;;;;;1.50;0.95;;;4.90;99.90;;;;;;4949931;28;20400;-67
2024/02/24 00:30:30;;;;;;;1.95;0.73;;;4.90;99.90;;;;;;4934966;29;20055;-67
2024/02/24 00:32:56;;;;;;;1.02;0.90;;;4.90;99.90;;;;;;4929219;29;20040;-67
2024/02/24 00:35:22;;;;;;;0.45;0.30;;;4.80;99.90;;;;;;4949418;28;20058;-66
2024/02/24 00:37:48;;;;;;;7.47;2.03;;;4.80;99.90;;;;;;4945314;28;20059;-67
2024/02/24 00:40:14;;;;;;;1.67;1.20;;;4.70;99.90;;;;;;4933425;29;20032;-67
2024/02/24 00:42:39;;;;;;;0.65;0.65;;;4.70;99.90;;;;;;4943897;28;20488;-67
2024/02/24 00:45:06;;;;;;;7.45;1.02;;;4.60;99.90;;;;;;4949707;28;20568;-67
2024/02/24 00:47:32;;;;;;;1.98;0.75;;;4.60;99.90;;;;;;4929456;29;20028;-67
2024/02/24 00:49:57;;;;;;;0.30;0.30;;;4.50;99.90;;;;;;4933413;29;20050;-67
2024/02/24 00:52:25;;;;;;;2.10;1.38;;;4.50;99.90;;;;;;4946616;29;20123;-67
2024/02/24 00:54:51;;;;;;;0.50;0.50;;;4.50;99.90;;;;;;4933494;29;20071;-67
2024/02/24 00:57:17;;;;;;;0.98;0.82;;;4.50;99.90;;;;;;4934870;29;20054;-67
2024/02/24 00:59:43;;;;;;;1.60;1.40;;;4.40;99.90;;;;;;4946902;29;20039;-67
2024/02/24 01:02:09;;;;;;;1.02;1.00;;;4.40;99.90;;;;;;4932102;29;20039;-68
2024/02/24 01:04:35;;;;;;;1.55;0.73;;;4.40;99.90;;;;;;4930155;29;20024;-68
2024/02/24 01:07:01;;;;;;;1.00;0.55;;;4.40;99.90;;;;;;4949672;29;20065;-68
2024/02/24 01:09:27;;;;;;;3.53;1.58;;;4.40;99.90;;;;;;4945689;28;20063;-67
2024/02/24 01:11:53;;;;;;;0.98;0.82;;;4.40;99.90;;;;;;4934606;29;20048;-67
2024/02/24 01:14:19;;;;;;;0.40;0.40;;;4.50;99.90;;;;;;4929135;29;20035;-67
2024/02/24 01:16:45;;;;;;;0.88;0.73;;;4.50;99.90;;;;;;4917385;29;20495;-67
2024/02/24 01:19:11;;;;;;;1.10;0.82;;;4.50;99.90;;;;;;4929195;29;20027;-67
2024/02/24 01:21:43;;;;;;;1.45;0.75;;;4.60;99.90;;;;;;4932679;29;20091;-67
2024/02/24 01:24:09;;;;;;;0.90;0.75;;;4.80;99.90;;;;;;4944589;29;20063;-67
2024/02/24 01:26:35;;;;;;;1.23;0.75;;;4.80;99.90;;;;;;4932956;29;20173;-67
2024/02/24 01:29:00;;;;;;;3.33;1.20;;;5.00;99.90;;;;;;4930525;29;20119;-67
2024/02/24 01:31:26;;;;;;;7.82;1.52;;;5.10;99.90;;;;;;4934242;29;20039;-67
2024/02/24 01:33:52;;;;;;;1.77;1.00;;;5.10;99.90;;;;;;4929644;29;20106;-67
2024/02/24 01:36:17;;;;;;;4.80;0.55;;;5.20;99.90;;;;;;4934036;29;20043;-67
2024/02/24 01:38:43;;;;;;;0.95;0.45;;;5.20;99.90;;;;;;4930522;29;20110;-67
2024/02/24 01:41:10;;;;;;;0.88;0.50;;;5.20;99.90;;;;;;4932936;29;20499;-67
2024/02/24 01:43:37;;;;;;;3.53;1.33;;;5.10;99.90;;;;;;4930134;29;20111;-67
2024/02/24 01:46:05;;;;;;;3.95;1.30;;;5.10;99.90;;;;;;4933909;29;20046;-68
2024/02/24 01:48:32;;;;;;;0.30;0.25;;;5.00;99.90;;;;;;4929675;29;20481;-67
2024/02/24 01:50:59;;;;;;;4.75;0.85;;;5.00;99.90;;;;;;4948687;29;20168;-65
2024/02/24 01:53:27;;;;;;;1.27;1.00;;;5.00;99.90;;;;;;4930996;29;20122;-67
2024/02/24 01:55:54;;;;;;;1.33;0.60;;;5.00;99.90;;;;;;4936185;29;20588;-67
2024/02/24 01:58:21;;;;;;;0.40;0.40;;;5.00;99.90;;;;;;4932106;29;20110;-65
2024/02/24 02:00:47;;;;;;;0.50;0.40;;;5.00;99.90;;;;;;4937531;29;20031;-65
2024/02/24 02:03:13;;;;;;;1.25;1.10;;;5.00;99.90;;;;;;4933781;29;20079;-66
2024/02/24 02:05:40;;;;;;;2.35;0.55;;;5.10;99.90;;;;;;4936617;29;20040;-66
2024/02/24 02:08:06;;;;;;;19.98;0.68;;;5.10;99.90;;;;;;4935548;29;20032;-66
2024/02/24 02:10:52;;;;;;;1.00;0.57;;;5.20;99.90;;;;;;4944463;28;20049;-66
2024/02/24 02:13:20;;;;;;;1.02;0.90;;;5.40;99.90;;;;;;4928739;29;20042;-66
2024/02/24 02:15:52;;;;;;;1.08;0.32;;;5.50;99.90;;;;;;4953232;28;20420;-66
2024/02/24 02:18:19;;;;;;;0.75;0.68;;;5.50;99.90;;;;;;4931921;29;20500;-66
2024/02/24 02:20:50;;;;;;;0.95;0.50;;;5.50;99.90;;;;;;4951724;29;20035;-66
2024/02/24 02:23:16;;;;;;;2.05;0.65;;;5.60;99.90;;;;;;4932884;29;20019;-66
2024/02/24 02:25:42;;;;;;;8.93;1.02;;;5.70;99.90;;;;;;4938823;28;20094;-66
2024/02/24 02:28:08;;;;;;;2.28;0.80;;;5.70;99.90;;;;;;4933529;29;20808;-66
2024/02/24 02:30:34;;;;;;;1.27;0.93;;;5.80;99.90;;;;;;4937403;29;20058;-66
2024/02/24 02:33:00;;;;;;;1.67;0.88;;;5.80;99.90;;;;;;4932908;29;20457;-66
2024/02/24 02:35:27;;;;;;;0.57;0.55;;;5.80;99.90;;;;;;4937192;29;20050;-66
2024/02/24 02:37:53;;;;;;;1.88;0.80;;;5.80;99.90;;;;;;4931015;29;20028;-66
2024/02/24 02:40:19;;;;;;;1.15;0.85;;;5.90;99.90;;;;;;4935788;29;20046;-66
2024/02/24 02:42:45;;;;;;;0.68;0.52;;;5.90;99.90;;;;;;4932595;29;20040;-66
2024/02/24 02:45:11;;;;;;;1.42;0.70;;;5.80;99.90;;;;;;4951363;29;20043;-66
2024/02/24 02:47:39;;;;;;;0.75;0.38;;;5.90;99.90;;;;;;4933749;29;20043;-66
2024/02/24 02:50:09;;;;;;;3.03;1.45;;;5.90;99.90;;;;;;4944031;29;20042;-66
2024/02/24 02:52:35;;;;;;;3.35;1.40;;;5.90;99.90;;;;;;4932176;29;20122;-66
2024/02/24 02:55:01;;;;;;;3.08;0.88;;;5.90;99.90;;;;;;4935449;29;20214;-66
2024/02/24 02:57:27;;;;;;;4.05;1.30;;;5.80;99.90;;;;;;4932084;29;20149;-66
2024/02/24 02:59:53;;;;;;;1.13;1.02;;;5.80;99.90;;;;;;4935818;29;20045;-67
2024/02/24 03:02:18;;;;;;;0.40;0.40;;;5.70;99.90;;;;;;4935606;29;20039;-67
2024/02/24 03:04:44;;;;;;;0.30;0.30;;;5.60;99.90;;;;;;4948361;28;20381;-66
2024/02/24 03:07:10;;;;;;;1.17;0.45;;;5.50;99.90;;;;;;4936669;29;20028;-67
2024/02/24 03:09:35;;;;;;;0.20;0.20;;;5.50;99.90;;;;;;4948082;29;20067;-66
2024/02/24 03:12:01;;;;;;;1.73;0.40;;;5.50;99.90;;;;;;4935655;29;20396;-66
2024/02/24 03:14:27;;;;;;;1.10;0.80;;;5.40;99.90;;;;;;4935099;29;20437;-66
2024/02/24 03:16:54;;;;;;;1.00;0.70;;;5.40;99.90;;;;;;4937243;28;20106;-66
2024/02/24 03:19:20;;;;;;;2.13;1.45;;;5.40;99.90;;;;;;4932452;29;20484;-67
2024/02/24 03:21:46;;;;;;;0.47;0.43;;;5.40;99.90;;;;;;4934845;29;20039;-67
2024/02/24 03:24:12;;;;;;;6.20;0.90;;;5.40;99.90;;;;;;4930499;29;20035;-66
2024/02/24 03:26:39;;;;;;;1.60;0.40;;;5.30;99.90;;;;;;4936156;29;20421;-66
2024/02/24 03:29:05;;;;;;;0.40;0.32;;;5.30;99.90;;;;;;4946650;28;20043;-67
2024/02/24 03:31:31;;;;;;;0.55;0.55;;;5.30;99.90;;;;;;4942685;29;20031;-67
2024/02/24 03:33:57;;;;;;;0.57;0.50;;;5.30;99.90;;;;;;4931636;29;20051;-67
2024/02/24 03:36:24;;;;;;;1.23;0.55;;;5.30;99.90;;;;;;4935399;29;20667;-67
2024/02/24 03:38:50;;;;;;;0.40;0.40;;;5.30;99.90;;;;;;4946353;29;20044;-67
2024/02/24 03:41:15;;;;;;;1.35;0.52;;;5.30;99.90;;;;;;4950857;29;20048;-68
2024/02/24 03:43:41;;;;;;;1.00;0.35;;;5.20;99.90;;;;;;4947192;28;20045;-67
2024/02/24 03:46:07;;;;;;;5.53;0.75;;;5.10;99.90;;;;;;4937053;29;20024;-67
2024/02/24 03:48:33;;;;;;;0.68;0.50;;;5.10;99.90;;;;;;4930477;29;20043;-67
2024/02/24 03:51:00;;;;;;;0.85;0.63;;;5.10;99.90;;;;;;4918959;29;20037;-67
2024/02/24 03:53:28;;;;;;;0.43;0.40;;;5.00;99.90;;;;;;4931493;29;20127;-67
2024/02/24 03:55:54;;;;;;;2.72;0.63;;;5.00;99.90;;;;;;4933838;29;20366;-67
2024/02/24 03:58:21;;;;;;;1.23;0.85;;;5.00;99.90;;;;;;4931351;29;20063;-67
2024/02/24 04:00:47;;;;;;;0.75;0.25;;;4.90;99.90;;;;;;4935409;29;20528;-67
2024/02/24 04:03:14;;;;;;;1.27;0.50;;;4.80;99.90;;;;;;4930016;29;20035;-67
2024/02/24 04:05:40;;;;;;;0.40;0.40;;;4.80;99.90;;;;;;4934358;29;20403;-67
2024/02/24 04:08:06;;;;;;;0.88;0.38;;;4.80;99.90;;;;;;4931719;29;20104;-67
2024/02/24 04:10:32;;;;;;;0.10;0.10;;;4.80;99.90;;;;;;4935571;29;20062;-67
2024/02/24 04:12:57;;;;;;;1.48;0.47;;;4.80;99.90;;;;;;4930102;29;20047;-67
2024/02/24 04:15:24;;;;;;;0.10;0.10;;;4.90;99.90;;;;;;4939320;28;20036;-67
2024/02/24 04:17:50;;;;;;;0.50;0.50;;;4.90;99.90;;;;;;4937547;29;20032;-67
2024/02/24 04:20:16;;;;;;;2.28;0.75;;;4.90;99.90;;;;;;4935378;29;20028;-67
2024/02/24 04:22:42;;;;;;;0.15;0.15;;;4.90;99.90;;;;;;4931152;29;20102;-67
2024/02/24 04:25:09;;;;;;;0.10;0.10;;;5.00;99.90;;;;;;4934138;29;20023;-67
2024/02/24 04:27:38;;;;;;;0.08;0.08;;;5.00;99.90;;;;;;4931680;29;20034;-67
2024/02/24 04:30:04;;;;;;;0.43;0.13;;;5.00;99.90;;;;;;4935439;29;20035;-67
2024/02/24 04:32:30;;;;;;;0.15;0.13;;;4.90;99.90;;;;;;4931853;29;20052;-67
2024/02/24 04:34:56;;;;;;;0.60;0.55;;;4.90;99.90;;;;;;4948770;29;20111;-66
2024/02/24 04:37:24;;;;;;;1.80;0.40;;;4.80;99.90;;;;;;4932784;29;20040;-66
2024/02/24 04:39:52;;;;;;;0.75;0.75;;;4.80;99.90;;;;;;4933432;29;20531;-66
2024/02/24 04:42:18;;;;;;;0.40;0.40;;;4.70;99.90;;;;;;4933290;29;20397;-67
2024/02/24 04:44:49;;;;;;;1.20;0.30;;;4.60;99.90;;;;;;4949440;28;20110;-67
2024/02/24 04:47:16;;;;;;;0.75;0.63;;;4.60;99.90;;;;;;4933248;29;20019;-66
2024/02/24 04:49:41;;;;;;;0.77;0.40;;;4.50;99.90;;;;;;4932391;29;20046;-67
2024/02/24 04:52:07;;;;;;;0.95;0.47;;;4.40;99.90;;;;;;4934564;29;20020;-67
2024/02/24 04:54:33;;;;;;;0.55;0.50;;;4.30;99.90;;;;;;4929791;29;20035;-67
2024/02/24 04:56:59;;;;;;;0.75;0.52;;;4.10;99.90;;;;;;4949476;28;20167;-67
2024/02/24 04:59:24;;;;;;;1.38;0.70;;;4.00;99.90;;;;;;4929052;29;20499;-67
2024/02/24 05:01:50;;;;;;;0.32;0.20;;;3.90;99.90;;;;;;4934846;29;20103;-66
2024/02/24 05:04:16;;;;;;;0.38;0.25;;;3.80;99.90;;;;;;4934033;29;20040;-66
2024/02/24 05:06:42;;;;;;;0.20;0.20;;;3.80;99.90;;;;;;4934822;29;20039;-67
2024/02/24 05:09:11;;;;;;;0.17;0.17;;;3.80;99.90;;;;;;4930596;29;20031;-66
2024/02/24 05:11:41;;;;;;;0.38;0.38;;;3.80;99.90;;;;;;4934109;29;20690;-66
2024/02/24 05:14:06;;;;;;;1.15;0.50;;;3.80;99.90;;;;;;4927417;29;20054;-66
2024/02/24 05:16:33;;;;;;;0.30;0.20;;;3.80;99.90;;;;;;4937493;29;20549;-67
2024/02/24 05:18:59;;;;;;;4.00;0.55;;;3.80;99.90;;;;;;4929712;29;20565;-66
2024/02/24 05:21:25;;;;;;;2.20;0.55;;;3.90;99.90;;;;;;4932973;29;20039;-67
2024/02/24 05:23:53;;;;;;;0.20;0.20;;;4.00;99.90;;;;;;4929080;29;20091;-66
2024/02/24 05:26:24;;;;;;;0.20;0.17;;;4.00;99.90;;;;;;4934329;29;20081;-67
2024/02/24 05:28:50;;;;;;;0.15;0.15;;;4.00;99.90;;;;;;4928409;29;20023;-67
2024/02/24 05:31:17;;;;;;;0.17;0.17;;;4.10;99.90;;;;;;4934325;29;20511;-67
2024/02/24 05:33:43;;;;;;;0.28;0.28;;;4.20;99.90;;;;;;4933297;29;20032;-68
2024/02/24 05:36:09;;;;;;;0.40;0.38;;;4.20;99.90;;;;;;4958544;28;20038;-67
2024/02/24 05:38:35;;;;;;;0.38;0.38;;;4.20;99.90;;;;;;4933222;29;20035;-67
2024/02/24 05:41:02;;;;;;;0.10;0.10;;;4.30;99.90;;;;;;4934858;29;20036;-67
2024/02/24 05:43:28;;;;;;;1.80;0.60;;;4.20;99.90;;;;;;4929493;29;20089;-67
2024/02/24 05:45:57;;;;;;;0.28;0.28;;;4.30;99.90;;;;;;4927080;29;20032;-66
2024/02/24 05:48:23;;;;;;;0.38;0.17;;;4.20;99.90;;;;;;4936591;29;20023;-67
2024/02/24 05:50:49;;;;;;;0.65;0.35;;;4.20;99.90;;;;;;4931005;29;20035;-67
2024/02/24 05:53:15;;;;;;;0.20;0.20;;;4.20;99.90;;;;;;4935172;29;20066;-67
2024/02/24 05:55:43;;;;;;;0.15;0.15;;;4.20;99.90;;;;;;4948058;28;20027;-68
2024/02/24 05:58:09;;;;;;;0.22;0.22;;;4.20;99.90;;;;;;4933281;29;20051;-68
2024/02/24 06:00:35;;;;;;;0.50;0.22;;;4.20;99.90;;;;;;4934308;29;20067;-68
2024/02/24 06:03:01;;;;;;;0.20;0.20;;;4.20;99.90;;;;;;4936896;29;20477;-67
2024/02/24 06:05:27;;;;;;;0.57;0.57;;;4.20;99.90;;;;;;4951829;28;20024;-67
2024/02/24 06:07:53;;;;;;;0.25;0.25;;;4.20;99.90;;;;;;4938145;29;20028;-66
2024/02/24 06:10:20;;;;;;;0.35;0.28;;;4.20;99.90;;;;;;4938248;29;20030;-68
2024/02/24 06:12:45;;;;;;;0.32;0.32;;;4.20;99.90;;;;;;4936759;29;20038;-67
2024/02/24 06:15:11;;;;;;;0.10;0.10;;;4.10;99.90;;;;;;4945680;28;20118;-67
2024/02/24 06:17:37;;;;;;;0.28;0.28;;;4.00;99.90;;;;;;4936107;29;20060;-68
2024/02/24 06:20:04;;;;;;;0.70;0.32;;;4.10;99.90;;;;;;4929330;29;20433;-67
2024/02/24 06:22:29;;;;;;;0.35;0.25;;;4.20;99.90;;;;;;4933984;29;20032;-67
2024/02/24 06:24:55;;;;;;;0.20;0.20;;;4.20;99.90;;;;;;4933507;29;20034;-66
2024/02/24 06:27:21;;;;;;;1.60;0.32;;;4.20;99.90;;;;;;4931723;29;20062;-66
2024/02/24 06:29:47;;;;;;;0.43;0.30;;;4.10;99.90;;;;;;4939752;29;20098;-66
2024/02/24 06:32:12;;;;;;;0.22;0.22;;;4.20;99.90;;;;;;4931800;29;20102;-67
2024/02/24 06:34:45;;;;;;;0.68;0.60;;;4.20;99.90;;;;;;4933367;29;20504;-65
2024/02/24 06:37:11;;;;;;;2.67;0.55;;;4.20;99.90;;;;;;4932815;29;20035;-65
2024/02/24 06:39:37;;;;;;;1.27;0.93;;;4.30;99.90;;;;;;4933800;29;20424;-65
2024/02/24 06:42:03;;;;;;;4.75;0.60;;;4.40;99.90;;;;;;4934752;29;20051;-65
2024/02/24 06:44:29;;;;;;;0.28;0.25;;;4.40;99.90;;;;;;4935518;29;20134;-66
2024/02/24 06:46:55;;;;;;;1.65;0.52;;;4.50;99.90;;;;;;4933804;29;20564;-66
2024/02/24 06:49:21;;;;;;;1.05;0.35;;;4.60;99.90;;;;;;4936589;29;20020;-67
2024/02/24 06:51:46;;;;;;;0.38;0.30;;;4.60;99.90;;;;;;4937781;29;20078;-66
2024/02/24 06:54:12;;;;;;;0.10;0.10;;;4.70;99.90;;;;;;4937210;29;20075;-66
2024/02/24 06:56:38;;;;;;;0.47;0.47;;;4.70;99.90;;;;;;4935066;29;20507;-66
2024/02/24 06:59:06;;;;;;;10.35;0.63;;;4.80;99.90;;;;;;4928048;29;20425;-66
2024/02/24 07:01:32;;;;;;;1.65;0.57;;;4.80;99.90;;;;;;4935051;29;20035;-66
2024/02/24 07:03:59;;;;;;;0.10;0.10;;;4.70;99.90;;;;;;4936427;29;20552;-66
2024/02/24 07:06:24;;;;;;;0.38;0.22;;;4.70;99.90;;;;;;4934238;29;20420;-66
2024/02/24 07:08:50;;;;;;;0.82;0.40;;;4.70;99.90;;;;;;4936905;29;20024;-66
2024/02/24 07:11:16;;;;;;;0.90;0.55;;;4.60;99.90;;;;;;4932725;29;20051;-65
2024/02/24 07:13:42;;;;;;;1.55;1.08;;;4.50;99.90;;;;;;4936281;29;20035;-66
2024/02/24 07:16:08;;;;;;;2.17;0.82;;;4.50;99.90;;;;;;4933167;29;20032;-66
2024/02/24 07:18:36;;;;;;;1.75;0.77;;;4.60;99.90;;;;;;4951234;29;20040;-66
2024/02/24 07:21:02;;;;;;;1.83;0.55;;;4.60;99.90;;;;;;4934177;29;20102;-66
2024/02/24 07:23:28;;;;;;;2.63;1.00;;;4.50;99.90;;;;;;4935515;29;20473;-66
2024/02/24 07:25:54;;;;;;;0.20;0.20;;;4.60;99.90;;;;;;4934079;29;20035;-66
2024/02/24 07:28:19;;;;;;;0.20;0.20;;;4.50;99.90;;;;;;4936691;29;20043;-66
2024/02/24 07:30:45;;;;;;;3.30;1.08;;;4.60;99.90;;;;;;4933846;29;20433;-66
2024/02/24 07:33:14;;;;;;;0.22;0.20;;;4.60;99.90;;;;;;4936803;29;20035;-66
2024/02/24 07:35:40;;;;;;;0.30;0.30;;;4.60;99.90;;;;;;4933718;29;20035;-66
2024/02/24 07:38:05;;;;;;;0.52;0.52;;;4.50;99.90;;;;;;4936789;29;20123;-65
2024/02/24 07:40:33;;;;;;;0.52;0.32;;;4.60;99.90;;;;;;4935309;29;20119;-66
2024/02/24 07:43:00;;;;;;;2.35;0.95;;;4.60;99.90;;;;;;4936093;29;20106;-65
2024/02/24 07:45:26;;;;;;;0.63;0.40;;;4.60;99.90;;;;;;4935832;29;20112;-65
2024/02/24 07:47:53;;;;;;;0.75;0.50;;;4.60;99.90;;;;;;4934732;29;20102;-65
2024/02/24 07:50:19;;;;;;;0.25;0.25;;;4.60;99.90;;;;;;4950471;28;20476;-65
2024/02/24 07:52:45;;;;;;;0.17;0.17;;;4.50;99.90;;;;;;4933044;29;20031;-65
2024/02/24 07:55:11;;;;;;;0.10;0.10;;;4.50;99.90;;;;;;4935941;29;20031;-65
2024/02/24 07:57:37;;;;;;;0.10;0.10;;;4.50;99.90;;;;;;4936333;29;20440;-65
2024/02/24 08:00:04;;;;;;;0.13;0.13;;;4.50;99.90;;;;;;4935952;29;20365;-66
2024/02/24 08:02:34;;;;;;;0.17;0.17;;;4.50;99.90;;;;;;4932101;29;20119;-65
2024/02/24 08:04:59;;;;;;;0.10;0.10;;;4.50;99.90;;;;;;4937999;29;20074;-65
2024/02/24 08:07:25;;;;;;;0.10;0.10;;;4.50;99.90;;;;;;4931843;29;20059;-65
2024/02/24 08:09:51;;;;;;;0.00;0.00;;;4.50;99.90;;;;;;4935223;29;20046;-66
2024/02/24 08:12:17;;;;;;;1.15;0.50;;;4.60;99.90;;;;;;4933647;29;20130;-66
2024/02/24 08:14:43;;;;;;;0.20;0.20;;;4.60;99.90;;;;;;4949873;29;20031;-66
2024/02/24 08:17:10;;;;;;;0.10;0.10;;;4.70;99.90;;;;;;4932117;29;20031;-66
2024/02/24 08:19:36;;;;;;;0.80;0.30;;;4.70;99.90;;;;;;4950435;29;20519;-66
2024/02/24 08:22:03;;;;;;;0.40;0.40;;;4.80;99.90;;;;;;4932860;29;20028;-66
2024/02/24 08:24:29;;;;;;;0.75;0.55;;;4.90;99.90;;;;;;4920701;29;20484;-66
2024/02/24 08:26:55;;;;;;;0.43;0.30;;;4.90;99.90;;;;;;4947826;28;20059;-66
2024/02/24 08:29:21;;;;;;;0.57;0.35;;;5.00;99.90;;;;;;4935515;29;20062;-66
2024/02/24 08:31:46;;;;;;;2.60;1.00;;;5.00;99.90;;;;;;4931259;29;20101;-66
2024/02/24 08:34:13;;;;;;;0.85;0.85;;;5.10;99.90;;;;;;4935168;29;20381;-66
2024/02/24 08:36:38;;;;;;;0.95;0.60;;;5.10;99.90;;;;;;4932827;29;20516;-66
2024/02/24 08:39:05;;;;;;;0.10;0.10;;;5.20;99.90;;;;;;4935298;29;20062;-66
2024/02/24 08:41:33;;;;;;;1.05;0.80;;;5.30;99.90;;;;;;4931076;29;20774;-66
2024/02/24 08:44:01;;;;;;;1.23;0.60;;;5.40;99.90;;;;;;4954124;28;20023;-66
2024/02/24 08:46:28;;;;;;;15.00;0.63;;;5.50;99.90;;;;;;4932554;29;20090;-66
2024/02/24 08:48:54;;;;;;;0.20;0.20;;;5.50;99.90;;;;;;4934814;29;20034;-66
2024/02/24 08:51:21;;;;;;;0.20;0.17;;;5.50;99.90;;;;;;4930746;29;20542;-66
2024/02/24 08:53:49;;;;;;;0.00;0.00;;;5.50;99.90;;;;;;4934555;29;20063;-66
2024/02/24 08:56:19;;;;;;;0.00;0.00;;;5.40;99.90;;;;;;4932626;29;20455;-66
2024/02/24 08:58:45;;;;;;;0.10;0.10;;;5.50;99.90;;;;;;4934872;29;20135;-66
2024/02/24 09:01:14;;;;;;;0.10;0.10;;;5.60;99.90;;;;;;4931933;29;20035;-66
2024/02/24 09:03:40;;;;;;;0.10;0.10;;;5.70;99.90;;;;;;4932828;29;20062;-66
2024/02/24 09:06:06;;;;;;;0.35;0.35;;;5.70;99.90;;;;;;4933479;29;20035;-68
2024/02/24 09:08:31;;;;;;;0.10;0.10;;;5.60;99.90;;;;;;4933644;29;20023;-66
2024/02/24 09:10:57;;;;;;;0.10;0.10;;;5.70;99.90;;;;;;4932259;29;20067;-66
2024/02/24 09:13:23;;;;;;;0.30;0.30;;;5.80;99.90;;;;;;4934417;29;20023;-66
2024/02/24 09:15:49;;;;;;;2.22;1.33;;;5.90;99.90;;;;;;4932145;29;20185;-66
2024/02/24 09:18:16;;;;;;;0.77;0.40;;;5.80;99.90;;;;;;4933433;29;20031;-66
2024/02/24 09:20:43;;;;;;;0.15;0.15;;;5.80;99.90;;;;;;4932053;29;20127;-66
2024/02/24 09:23:10;;;;;;;0.08;0.08;;;5.80;99.90;;;;;;4934371;29;20127;-66
2024/02/24 09:25:36;;;;;;;0.20;0.20;;;6.00;99.90;;;;;;4933776;29;20110;-66
2024/02/24 09:28:02;;;;;;;0.20;0.20;;;6.10;99.90;;;;;;4933426;29;20059;-67
2024/02/24 09:30:27;;;;;;;0.10;0.10;;;6.20;99.90;;;;;;4932661;29;20042;-67
2024/02/24 09:32:54;;;;;;;0.15;0.15;;;6.40;99.90;;;;;;4934402;29;20028;-67
2024/02/24 09:35:29;;;;;;;0.00;0.00;;;6.50;99.90;;;;;;4948388;28;20034;-67
2024/02/24 09:37:55;;;;;;;0.40;0.17;;;6.60;99.90;;;;;;4934685;29;20130;-67
2024/02/24 09:40:21;;;;;;;0.20;0.20;;;6.50;99.90;;;;;;4934126;29;20039;-67
2024/02/24 09:42:47;;;;;;;0.10;0.10;;;6.60;99.90;;;;;;4934350;29;20098;-67
2024/02/24 09:45:14;;;;;;;0.00;0.00;;;6.60;99.90;;;;;;4933903;29;20035;-67
2024/02/24 09:47:44;;;;;;;3.42;0.73;;;6.80;99.90;;;;;;4933129;29;20051;-66
2024/02/24 09:50:11;;;;;;;0.52;0.45;;;6.90;99.90;;;;;;4932987;29;20035;-66
2024/02/24 09:52:41;;;;;;;0.45;0.10;;;7.10;99.90;;;;;;4934250;29;20435;-66
2024/02/24 09:55:08;;;;;;;0.10;0.10;;;7.10;99.90;;;;;;4934008;29;20035;-67
2024/02/24 09:57:38;;;;;;;5.18;2.10;;;7.30;99.90;;;;;;4932729;29;20051;-67
2024/02/24 10:00:08;;;;;;;0.20;0.10;;;7.50;99.90;;;;;;4932160;29;20036;-67
2024/02/24 10:02:34;;;;;;;19.55;7.72;;;7.70;99.90;;;;;;4934285;29;20024;-66
2024/02/24 10:05:00;;;;;;;9.02;3.35;;;7.60;99.90;;;;;;4932383;29;20648;-66
2024/02/24 10:07:27;;;;;;;1.30;0.73;;;7.40;99.90;;;;;;4934343;29;20032;-66
2024/02/24 10:09:53;;;;;;;0.20;0.20;;;7.40;99.90;;;;;;4933722;29;20023;-67
2024/02/24 10:12:19;;;;;;;0.70;0.57;;;7.60;99.90;;;;;;4934118;29;20031;-66
2024/02/24 10:14:44;;;;;;;0.32;0.20;;;7.70;99.90;;;;;;4937028;29;20058;-69
2024/02/24 10:17:10;;;;;;;0.20;0.20;;;7.90;99.90;;;;;;4938057;29;20107;-67
2024/02/24 10:19:37;;;;;;;0.38;0.10;;;7.60;99.90;;;;;;4937338;29;20118;-64
2024/02/24 10:22:06;;;;;;;0.10;0.10;;;7.40;99.90;;;;;;4937228;29;20030;-64
2024/02/24 10:24:33;;;;;;;0.20;0.20;;;7.20;99.90;;;;;;4937385;29;20477;-65
2024/02/24 10:27:02;;;;;;;0.13;0.10;;;7.10;99.90;;;;;;4937842;29;20042;-65
2024/02/24 10:29:32;;;;;;;0.00;0.00;;;7.10;99.90;;;;;;4937993;29;20110;-65
2024/02/24 10:32:00;;;;;;;0.10;0.10;;;7.20;99.90;;;;;;4937132;29;20485;-65
2024/02/24 10:34:28;;;;;;;0.10;0.10;;;7.40;99.90;;;;;;4937603;29;20475;-65
2024/02/24 10:37:00;;;;;;;0.10;0.10;;;7.60;99.90;;;;;;4937140;29;20067;-65
2024/02/24 10:39:27;;;;;;;0.00;0.00;;;7.70;99.90;;;;;;4951698;28;20055;-66
2024/02/24 10:41:53;;;;;;;0.20;0.20;;;7.70;99.90;;;;;;4936906;29;20123;-67
2024/02/24 10:44:21;;;;;;;0.22;0.17;;;8.10;99.90;;;;;;4952211;28;20023;-67
2024/02/24 10:46:50;;;;;;;0.35;0.28;;;8.60;99.90;;;;;;4936902;29;20028;-67
2024/02/24 10:49:16;;;;;;;0.35;0.30;;;9.00;99.90;;;;;;4937403;29;20031;-67
2024/02/24 10:51:46;;;;;;;0.13;0.10;;;9.10;99.90;;;;;;4935353;29;20043;-67
2024/02/24 10:54:22;;;;;;;0.45;0.45;;;8.80;99.90;;;;;;4935511;29;20089;-67
2024/02/24 10:57:02;;;;;;;0.10;0.00;;;8.40;99.90;;;;;;4935403;29;20095;-67
2024/02/24 10:59:30;;;;;;;0.10;0.10;;;8.40;99.90;;;;;;4936302;29;20045;-66
2024/02/24 11:02:03;;;;;;;0.00;0.00;;;8.10;99.90;;;;;;4950774;28;20036;-66
2024/02/24 11:04:35;;;;;;;0.32;0.32;;;7.80;99.90;;;;;;4935576;29;20016;-66
2024/02/24 11:07:04;;;;;;;3.88;0.13;;;7.80;99.90;;;;;;4949956;28;20110;-66
2024/02/24 11:09:38;;;;;;;0.05;0.05;;;7.80;99.90;;;;;;4936520;29;20028;-70
2024/02/24 11:12:13;;;;;;;7.78;0.17;;;7.90;99.90;;;;;;4936658;29;20082;-66
2024/02/24 11:14:42;;;;;;;0.20;0.20;;;8.70;99.90;;;;;;4936122;29;20031;-66
2024/02/24 11:17:10;;;;;;;0.00;0.00;;;8.70;99.90;;;;;;4937172;29;20118;-66
2024/02/24 11:19:44;;;;;;;0.00;0.00;;;8.90;99.90;;;;;;4936558;29;20020;-66
2024/02/24 11:22:29;;;;;;;0.00;0.00;;;9.10;99.90;;;;;;4928252;29;20042;-67
2024/02/24 11:25:06;;;;;;;0.00;0.00;;;10.00;99.90;;;;;;4948388;28;20678;-67
2024/02/24 11:27:40;;;;;;;0.13;0.13;;;11.30;98.40;;;;;;4935003;29;20058;-67
2024/02/24 11:30:34;;;;;;;0.57;0.17;;;11.70;96.80;;;;;;4936441;29;20024;-66
2024/02/24 11:33:37;;;;;;;0.00;0.00;;;12.50;94.90;;;;;;4935932;29;20086;-67
2024/02/24 11:36:07;;;;;;;0.35;0.10;;;14.00;90.40;;;;;;4934067;29;20464;-64
2024/02/24 11:38:33;;;;;;;0.03;0.03;;;11.20;92.10;;;;;;4934935;29;20038;-66
2024/02/24 11:41:04;;;;;;;3.83;0.52;;;10.30;97.90;;;;;;4933805;29;20039;-66
2024/02/24 11:43:30;;;;;;;0.00;0.00;;;10.30;97.60;;;;;;4935503;29;20020;-66
2024/02/24 11:45:56;;;;;;;0.30;0.30;;;9.90;99.70;;;;;;4934867;29;20028;-66
2024/02/24 11:48:22;;;;;;;0.00;0.00;;;9.50;99.60;;;;;;4935787;29;20023;-66
2024/02/24 11:50:50;;;;;;;0.75;0.10;;;9.70;99.90;;;;;;4933461;29;20039;-67
2024/02/24 11:53:17;;;;;;;0.13;0.13;;;9.30;99.90;;;;;;4934531;29;20043;-67
2024/02/24 11:55:48;;;;;;;0.00;0.00;;;9.10;99.90;;;;;;4934344;29;20654;-67
2024/02/24 11:58:15;;;;;;;0.13;0.08;;;9.10;99.90;;;;;;4935796;29;20034;-67
2024/02/24 12:00:41;;;;;;;0.08;0.08;;;9.10;99.90;;;;;;4948743;29;20368;-67
2024/02/24 12:03:25;;;;;;;0.77;0.43;;;9.10;99.90;;;;;;4927538;29;20031;-67
2024/02/24 12:05:50;;;;;;;0.08;0.08;;;8.90;99.90;;;;;;4934941;29;20469;-67
2024/02/24 12:08:21;;;;;;;0.13;0.10;;;8.90;99.90;;;;;;4935213;29;20042;-67
2024/02/24 12:10:47;;;;;;;0.00;0.00;;;9.40;99.90;;;;;;4933897;29;20047;-67
2024/02/24 12:13:14;;;;;;;0.10;0.10;;;9.50;99.90;;;;;;4935318;29;20062;-67
2024/02/24 12:15:46;;;;;;;0.10;0.05;;;9.80;99.90;;;;;;4934458;29;20118;-67
2024/02/24 12:18:12;;;;;;;0.22;0.10;;;11.30;98.50;;;;;;4935667;29;20090;-67
2024/02/24 12:20:41;;;;;;;0.32;0.20;;;12.30;95.60;;;;;;4936347;28;20035;-67
2024/02/24 12:23:08;;;;;;;2.00;0.28;;;12.60;93.10;;;;;;4934597;29;20040;-67
2024/02/24 12:25:34;;;;;;;0.55;0.40;;;12.20;93.00;;;;;;4934059;29;20028;-66
2024/02/24 12:28:05;;;;;;;0.20;0.05;;;13.20;91.30;;;;;;4934964;29;20114;-66
2024/02/24 12:30:42;;;;;;;0.00;0.00;;;12.60;92.00;;;;;;4932549;29;20031;-66
2024/02/24 12:33:16;;;;;;;0.10;0.05;;;11.60;94.60;;;;;;4925842;29;20032;-66
2024/02/24 12:35:42;;;;;;;0.38;0.20;;;12.80;93.30;;;;;;4934169;29;20102;-66
2024/02/24 12:38:18;;;;;;;0.10;0.10;;;13.30;90.90;;;;;;4941071;29;20174;-66
2024/02/24 12:40:44;;;;;;;0.75;0.17;;;13.00;90.90;;;;;;4932617;29;20473;-66
2024/02/24 12:43:11;;;;;;;1.85;0.20;;;11.90;92.60;;;;;;4934311;29;20083;-66
2024/02/24 12:45:37;;;;;;;0.35;0.28;;;11.40;93.50;;;;;;4934168;29;20027;-66
2024/02/24 12:48:05;;;;;;;0.13;0.13;;;11.20;94.00;;;;;;4954146;28;20163;-65
2024/02/24 12:50:31;;;;;;;0.25;0.10;;;10.80;95.40;;;;;;4934001;29;20031;-66
2024/02/24 12:52:57;;;;;;;1.73;0.20;;;10.40;96.60;;;;;;4934106;29;20049;-66
2024/02/24 12:55:23;;;;;;;0.08;0.08;;;10.30;97.20;;;;;;4933140;29;20039;-65